Time;durP1;ratioP1;P1;durP2;ratioP2;P2;SDS_P1;SDS_P2;PMS_P1;PMS_P2;Temp;Humidity;BMP_temperature;BMP_pressure;BME280_temperature;BME280_humidity;BME280_pressure;Samples;Min_cycle;Max_cycle;Signal;HPM_P1;HPM_P2
2022/11/10 00:00:34;;;;;;;423.70;153.23;;;;;;;2.54;100.00;99002.75;5008397;28;20862;-62
2022/11/10 00:03:18;;;;;;;421.97;155.63;;;;;;;2.38;100.00;98988.94;5007972;28;20874;-61
2022/11/10 00:06:04;;;;;;;423.03;149.13;;;;;;;2.49;100.00;99015.31;5007816;28;20387;-62
2022/11/10 00:08:48;;;;;;;421.17;150.95;;;;;;;2.36;100.00;98999.88;5009495;28;20732;-62
2022/11/10 00:11:32;;;;;;;419.23;148.27;;;;;;;2.48;100.00;99020.34;5009825;28;20397;-61
2022/11/10 00:17:20;;;;;;;427.20;151.63;;;;;;;2.55;100.00;99019.63;5009818;28;20279;-60
2022/11/10 00:20:05;;;;;;;427.13;152.37;;;;;;;2.69;100.00;99028.34;5007075;28;20280;-61
2022/11/10 00:22:49;;;;;;;430.15;149.73;;;;;;;2.81;100.00;99030.22;5013467;28;20280;-60
2022/11/10 00:25:33;;;;;;;430.07;150.97;;;;;;;2.92;100.00;99037.22;5008981;28;20053;-62
2022/11/10 00:28:17;;;;;;;427.00;153.33;;;;;;;2.84;100.00;99013.44;5007891;28;20362;-62
2022/11/10 00:31:04;;;;;;;432.70;160.83;;;;;;;3.09;100.00;99045.09;5007805;28;20339;-62
2022/11/10 00:33:49;;;;;;;430.93;155.27;;;;;;;3.17;100.00;99043.56;5017361;28;20783;-62
2022/11/10 00:36:34;;;;;;;424.90;151.37;;;;;;;3.13;100.00;99027.47;5008158;28;20314;-61
2022/11/10 00:39:18;;;;;;;426.60;155.93;;;;;;;3.27;100.00;99042.03;5008457;28;20275;-60
2022/11/10 00:42:03;;;;;;;423.17;154.63;;;;;;;3.24;100.00;99022.56;5009212;28;20276;-60
2022/11/10 00:44:47;;;;;;;424.03;155.43;;;;;;;3.41;100.00;99054.09;5006435;28;20642;-60
2022/11/10 00:47:31;;;;;;;424.50;159.00;;;;;;;3.45;100.00;99055.84;5009834;28;20379;-60
2022/11/10 00:50:16;;;;;;;427.90;158.47;;;;;;;3.54;100.00;99058.53;5007923;28;20304;-60
2022/11/10 00:53:00;;;;;;;426.47;161.13;;;;;;;3.62;100.00;99062.03;5009793;28;20268;-60
2022/11/10 00:55:44;;;;;;;425.13;156.60;;;;;;;3.58;100.00;99040.00;5012989;28;21041;-60
2022/11/10 00:58:29;;;;;;;434.37;179.53;;;;;;;3.78;100.00;99064.81;5013935;28;20771;-60
2022/11/10 01:01:15;;;;;;;427.57;163.37;;;;;;;3.88;100.00;99062.41;5013098;28;20353;-60
2022/11/10 01:03:59;;;;;;;425.42;167.02;;;;;;;3.96;100.00;99065.91;5005091;28;20275;-59
2022/11/10 01:06:46;;;;;;;428.23;158.23;;;;;;;4.03;100.00;99065.16;5009993;28;20152;-60
2022/11/10 01:09:30;;;;;;;426.93;168.33;;;;;;;3.94;100.00;99049.84;5011914;28;20052;-61
2022/11/10 01:12:15;;;;;;;427.70;161.50;;;;;;;3.98;100.00;99068.47;5011459;28;20692;-62
2022/11/10 01:14:59;;;;;;;428.97;173.77;;;;;;;4.02;100.00;99082.91;5008163;28;20057;-62
2022/11/10 01:17:43;;;;;;;432.10;178.50;;;;;;;3.96;100.00;99057.44;5005644;28;20380;-61
2022/11/10 01:20:27;;;;;;;426.03;161.33;;;;;;;4.07;100.00;99081.28;5011328;28;20312;-62
2022/11/10 01:23:11;;;;;;;428.07;170.53;;;;;;;4.13;100.00;99079.69;5010706;28;20815;-62
2022/11/10 01:25:57;;;;;;;425.90;165.50;;;;;;;4.18;100.00;99082.28;5011683;28;20334;-62
2022/11/10 01:28:42;;;;;;;427.83;163.37;;;;;;;4.12;100.00;99080.50;5010807;28;20827;-58
2022/11/10 01:31:26;;;;;;;428.03;168.30;;;;;;;4.21;100.00;99089.94;5009987;28;20832;-61
2022/11/10 01:34:10;;;;;;;428.70;167.57;;;;;;;4.21;100.00;99087.38;5011638;28;21166;-61
2022/11/10 01:36:54;;;;;;;426.30;169.90;;;;;;;4.29;100.00;99088.34;5011377;28;20272;-61
2022/11/10 01:39:38;;;;;;;434.10;190.60;;;;;;;4.34;100.00;99098.56;5010429;28;20275;-62
2022/11/10 01:42:28;;;;;;;430.03;171.33;;;;;;;4.28;100.00;99084.13;5011853;28;20351;-61
2022/11/10 01:45:33;;;;;;;430.03;179.90;;;;;;;4.31;100.00;99090.91;5010226;28;20797;-61
2022/11/10 01:48:27;;;;;;;427.50;172.70;;;;;;;4.28;100.00;99081.59;5010610;28;20312;-61
2022/11/10 01:51:20;;;;;;;433.50;183.10;;;;;;;4.43;100.00;99097.00;5016560;28;20264;-62
2022/11/10 01:54:09;;;;;;;430.83;191.47;;;;;;;4.40;100.00;99074.13;5008012;28;20276;-62
2022/11/10 01:56:59;;;;;;;431.10;170.80;;;;;;;4.51;100.00;99087.78;5011560;28;20356;-61
2022/11/10 01:59:46;;;;;;;427.30;170.20;;;;;;;4.56;100.00;99083.63;5010673;28;20271;-61
2022/11/10 02:02:38;;;;;;;431.50;173.00;;;;;;;4.53;100.00;99062.44;5022230;28;20268;-62
2022/11/10 02:05:24;;;;;;;426.43;173.80;;;;;;;4.71;100.00;99082.09;5010303;28;20771;-61
2022/11/10 02:08:08;;;;;;;427.70;174.32;;;;;;;4.73;100.00;99088.03;5011255;28;20710;-61
2022/11/10 02:10:53;;;;;;;312.80;128.40;;;;;;;4.71;100.00;99093.09;5007501;28;20044;-61
2022/11/10 02:13:37;;;;;;;426.00;172.10;;;;;;;4.71;100.00;99093.09;5010523;28;20567;-61
2022/11/10 02:16:21;;;;;;;430.77;181.57;;;;;;;4.71;100.00;99089.72;5010390;28;20300;-61
2022/11/10 02:19:17;;;;;;;431.83;181.03;;;;;;;4.65;100.00;99075.25;5011663;28;20390;-61
2022/11/10 02:22:02;;;;;;;424.37;173.93;;;;;;;4.73;100.00;99088.91;5011526;28;20272;-62
2022/11/10 02:24:46;;;;;;;426.67;178.03;;;;;;;4.79;100.00;99091.53;5010844;28;20283;-61
2022/11/10 02:27:31;;;;;;;424.83;174.60;;;;;;;4.56;100.00;99078.53;5009315;28;20280;-64
2022/11/10 02:30:16;;;;;;;430.47;177.30;;;;;;;4.59;100.00;99073.50;5010645;28;20721;-66
2022/11/10 02:33:02;;;;;;;313.60;129.07;;;;;;;4.59;100.00;99077.72;5010106;28;20749;-62
2022/11/10 02:35:47;;;;;;;427.87;180.03;;;;;;;4.72;100.00;99106.66;5008056;28;20111;-62
2022/11/10 02:38:31;;;;;;;425.07;171.87;;;;;;;4.64;100.00;99086.25;5011433;28;20275;-61
2022/11/10 02:41:15;;;;;;;435.13;184.27;;;;;;;4.82;100.00;99105.94;5010501;28;20327;-61
2022/11/10 02:44:02;;;;;;;425.60;176.13;;;;;;;4.78;100.00;99106.72;5011542;28;20272;-64
2022/11/10 02:46:46;;;;;;;427.07;171.83;;;;;;;4.78;100.00;99109.28;5010919;28;20655;-61
2022/11/10 02:49:30;;;;;;;428.50;178.80;;;;;;;4.68;100.00;99092.22;5010635;28;20376;-62
2022/11/10 02:52:15;;;;;;;431.03;183.10;;;;;;;4.72;100.00;99096.50;5004263;28;20279;-61
2022/11/10 02:54:59;;;;;;;426.00;174.50;;;;;;;4.72;100.00;99099.03;5006139;28;20276;-61
2022/11/10 02:57:44;;;;;;;425.83;174.52;;;;;;;4.74;100.00;99112.59;5012920;28;20356;-61
2022/11/10 03:00:28;;;;;;;426.23;177.07;;;;;;;4.78;100.00;99119.44;5011453;28;20056;-61
2022/11/10 03:03:12;;;;;;;428.97;176.60;;;;;;;4.81;100.00;99117.78;5010521;28;20272;-61
2022/11/10 03:05:56;;;;;;;426.40;174.80;;;;;;;4.76;100.00;99121.09;5011890;28;20272;-61
2022/11/10 03:08:41;;;;;;;434.58;182.00;;;;;;;4.76;100.00;99121.09;5011174;28;20274;-62
2022/11/10 03:11:25;;;;;;;435.43;184.43;;;;;;;4.79;100.00;99122.00;5010103;28;20146;-61
2022/11/10 03:14:09;;;;;;;435.53;179.70;;;;;;;4.70;100.00;99133.72;5008744;28;20271;-61
2022/11/10 03:16:54;;;;;;;432.57;177.13;;;;;;;4.72;100.00;99134.56;5009633;28;20361;-62
2022/11/10 03:19:38;;;;;;;431.10;179.80;;;;;;;4.65;100.00;99115.03;5010547;28;20283;-61
2022/11/10 03:22:22;;;;;;;430.53;179.83;;;;;;;4.71;100.00;99148.97;5013105;28;20267;-62
2022/11/10 03:25:08;;;;;;;316.23;131.82;;;;;;;4.73;100.00;99141.38;5010920;28;20272;-61
2022/11/10 03:27:52;;;;;;;431.05;174.82;;;;;;;4.68;100.00;99132.84;5013487;28;20060;-61
2022/11/10 03:30:37;;;;;;;439.23;178.43;;;;;;;4.69;100.00;99132.88;5011179;28;20107;-60
2022/11/10 03:33:22;;;;;;;320.10;131.43;;;;;;;4.70;100.00;99148.97;5010341;28;20271;-61
2022/11/10 03:36:06;;;;;;;436.57;176.30;;;;;;;4.72;100.00;99158.28;5011997;28;20060;-61
2022/11/10 03:38:50;;;;;;;324.08;128.55;;;;;;;4.80;100.00;99155.84;5012152;28;20268;-62
2022/11/10 03:41:36;;;;;;;438.13;174.50;;;;;;;4.81;100.00;99155.88;5010664;28;20053;-61
2022/11/10 03:44:20;;;;;;;436.75;174.85;;;;;;;4.73;100.00;99146.44;5011746;28;20264;-61
2022/11/10 03:47:04;;;;;;;435.83;177.77;;;;;;;4.83;100.00;99153.38;5011380;28;20056;-61
2022/11/10 03:49:48;;;;;;;442.83;183.77;;;;;;;4.87;100.00;99161.03;5011758;28;20385;-60
2022/11/10 03:52:33;;;;;;;439.90;180.57;;;;;;;4.82;100.00;99154.19;5007831;28;20107;-62
2022/11/10 03:55:18;;;;;;;439.00;179.40;;;;;;;5.44;100.00;99158.25;5010048;28;20137;-61
2022/11/10 03:58:03;;;;;;;437.30;178.77;;;;;;;5.71;100.00;99161.91;5024503;28;20351;-62
2022/11/10 04:00:48;;;;;;;449.92;189.02;;;;;;;5.43;100.00;99168.44;5010371;28;20200;-60
2022/11/10 04:03:32;;;;;;;445.47;184.13;;;;;;;5.19;100.00;99166.47;5010540;28;20049;-61
2022/11/10 04:09:19;;;;;;;446.87;193.83;;;;;;;5.08;100.00;99165.53;5010862;28;20433;-61
2022/11/10 04:18:19;;;;;;;458.53;192.27;;;;;;;5.12;100.00;99169.78;5009622;28;20638;-61
2022/11/10 04:21:04;;;;;;;445.97;184.47;;;;;;;5.07;100.00;99177.38;5011675;28;20344;-62
2022/11/10 04:23:48;;;;;;;447.23;185.00;;;;;;;5.09;100.00;99176.53;5010201;28;20449;-61
2022/11/10 04:26:36;;;;;;;444.43;193.50;;;;;;;5.40;100.00;99176.88;5009595;28;20295;-62
2022/11/10 04:29:20;;;;;;;443.13;187.37;;;;;;;5.76;100.00;99184.00;5011320;28;20311;-61
2022/11/10 04:32:05;;;;;;;448.15;192.80;;;;;;;5.86;100.00;99182.38;5014178;28;20331;-63
2022/11/10 04:34:49;;;;;;;439.60;188.83;;;;;;;5.90;100.00;99179.06;5015259;28;20602;-62
2022/11/10 04:37:39;;;;;;;444.40;190.77;;;;;;;5.99;100.00;99181.69;5014329;28;20267;-61
2022/11/10 04:40:23;;;;;;;444.90;192.33;;;;;;;6.09;100.00;99162.25;5013295;28;20360;-62
2022/11/10 04:43:07;;;;;;;441.87;196.87;;;;;;;6.27;100.00;99164.94;5026145;28;20925;-61
2022/11/10 04:45:52;;;;;;;447.83;196.27;;;;;;;6.15;100.00;99183.53;5013964;28;20279;-62
2022/11/10 04:48:36;;;;;;;334.80;143.55;;;;;;;5.89;100.00;99180.78;5014679;28;20292;-62
2022/11/10 04:51:23;;;;;;;447.07;195.13;;;;;;;5.79;100.00;99188.25;5014352;28;20057;-63
2022/11/10 04:54:10;;;;;;;449.93;199.57;;;;;;;5.77;100.00;99185.69;5013263;28;20331;-62
2022/11/10 04:56:54;;;;;;;455.27;196.90;;;;;;;5.66;100.00;99183.91;5013186;28;20628;-63
2022/11/10 04:59:38;;;;;;;450.37;193.77;;;;;;;5.65;100.00;99193.22;5013541;28;20276;-62
2022/11/10 05:02:22;;;;;;;455.87;199.00;;;;;;;5.43;100.00;99174.34;5013204;28;20272;-62
2022/11/10 05:05:07;;;;;;;444.97;192.60;;;;;;;5.45;100.00;99200.66;5018411;28;20295;-62
2022/11/10 05:07:51;;;;;;;454.67;204.67;;;;;;;5.38;100.00;99206.53;5012242;28;20276;-62
2022/11/10 05:10:36;;;;;;;458.37;207.83;;;;;;;5.24;100.00;99194.50;5007027;28;20311;-62
2022/11/10 05:13:21;;;;;;;452.77;195.03;;;;;;;5.24;100.00;99215.69;5013187;28;20348;-62
2022/11/10 05:16:05;;;;;;;460.90;197.00;;;;;;;5.24;100.00;99205.50;5025674;28;20785;-62
2022/11/10 05:18:53;;;;;;;444.93;188.73;;;;;;;5.27;100.00;99205.53;5012947;28;20363;-63
2022/11/10 05:21:37;;;;;;;454.70;200.07;;;;;;;5.31;100.00;99208.97;5009084;28;20288;-62
2022/11/10 05:24:22;;;;;;;455.47;207.27;;;;;;;5.33;100.00;99213.25;5011726;28;20632;-62
2022/11/10 05:27:09;;;;;;;456.83;195.63;;;;;;;5.12;100.00;99190.13;5010753;28;20264;-62
2022/11/10 05:29:54;;;;;;;448.03;189.37;;;;;;;5.36;100.00;99213.28;4998254;28;20060;-61
2022/11/10 05:32:38;;;;;;;440.57;194.73;;;;;;;5.26;100.00;99206.38;5011075;28;20415;-62
2022/11/10 05:35:24;;;;;;;446.83;193.03;;;;;;;5.25;100.00;99203.81;5010288;28;20897;-61
2022/11/10 05:38:08;;;;;;;449.90;191.55;;;;;;;5.32;100.00;99219.16;5007849;28;20728;-62
2022/11/10 05:40:52;;;;;;;448.70;205.33;;;;;;;5.39;100.00;99228.53;5011276;28;20069;-62
2022/11/10 05:43:37;;;;;;;442.47;194.20;;;;;;;5.40;100.00;99220.09;5011163;28;20313;-62
2022/11/10 05:46:21;;;;;;;453.83;203.03;;;;;;;5.48;100.00;99232.88;5011507;28;20331;-62
2022/11/10 05:49:05;;;;;;;445.40;201.13;;;;;;;5.52;100.00;99242.25;5011476;28;20370;-62
2022/11/10 05:51:49;;;;;;;450.17;201.90;;;;;;;5.56;100.00;99246.53;5010529;28;20729;-61
2022/11/10 05:54:33;;;;;;;448.30;208.47;;;;;;;5.51;100.00;99250.75;5012896;28;20386;-61
2022/11/10 05:57:18;;;;;;;446.60;196.03;;;;;;;5.53;100.00;99264.31;5011454;28;20364;-60
2022/11/10 06:00:04;;;;;;;462.20;218.43;;;;;;;5.50;100.00;99275.31;5011630;28;20280;-61
2022/11/10 06:03:10;;;;;;;447.07;210.03;;;;;;;5.53;100.00;99277.88;5005264;28;20328;-61
2022/11/10 06:05:55;;;;;;;449.23;211.27;;;;;;;5.52;100.00;99288.88;5011675;28;20327;-61
2022/11/10 06:08:40;;;;;;;450.33;208.20;;;;;;;5.58;100.00;99295.75;5011388;28;20653;-61
2022/11/10 06:11:24;;;;;;;445.77;204.87;;;;;;;5.54;100.00;99281.28;5013155;28;20271;-65
2022/11/10 06:14:08;;;;;;;450.27;210.70;;;;;;;5.70;100.00;99282.28;5005566;28;20355;-61
2022/11/10 06:16:52;;;;;;;437.10;196.30;;;;;;;5.65;100.00;99297.50;5008627;28;20292;-62
2022/11/10 06:19:36;;;;;;;439.23;204.40;;;;;;;5.68;100.00;99302.66;5009783;28;20338;-61
2022/11/10 06:22:20;;;;;;;440.57;203.77;;;;;;;5.64;100.00;99294.97;5022353;28;20354;-62
2022/11/10 06:25:04;;;;;;;439.37;204.83;;;;;;;5.81;100.00;99317.19;5010853;28;20351;-61
2022/11/10 06:27:48;;;;;;;449.00;216.43;;;;;;;5.74;100.00;99322.19;5004408;28;20275;-62
2022/11/10 06:30:34;;;;;;;446.37;210.27;;;;;;;5.80;100.00;99337.53;5008061;28;20948;-61
2022/11/10 06:33:18;;;;;;;441.30;201.67;;;;;;;5.75;100.00;99344.25;5011319;28;20846;-61
2022/11/10 06:36:02;;;;;;;450.77;232.57;;;;;;;5.77;100.00;99352.78;5012384;28;20283;-61
2022/11/10 06:38:47;;;;;;;319.83;152.60;;;;;;;5.66;100.00;99336.50;5011492;28;20338;-60
2022/11/10 06:41:32;;;;;;;441.47;207.43;;;;;;;5.86;100.00;99358.84;5009771;28;20056;-61
2022/11/10 06:44:16;;;;;;;443.33;210.77;;;;;;;5.84;100.00;99346.91;5009359;28;20276;-62
2022/11/10 06:47:00;;;;;;;439.23;202.97;;;;;;;6.00;100.00;99356.44;5012205;28;20408;-61
2022/11/10 06:49:44;;;;;;;445.87;212.00;;;;;;;6.11;100.00;99375.22;5011763;28;20295;-61
2022/11/10 06:52:30;;;;;;;438.93;212.23;;;;;;;6.23;100.00;99371.97;5010541;28;20775;-62
2022/11/10 06:55:18;;;;;;;444.17;219.97;;;;;;;6.23;100.00;99355.00;5009380;28;20272;-63
2022/11/10 06:58:02;;;;;;;442.10;211.17;;;;;;;6.36;100.00;99374.66;5010485;28;20325;-63
2022/11/10 07:00:46;;;;;;;445.27;212.63;;;;;;;6.46;100.00;99378.13;5010976;28;20364;-60
2022/11/10 07:03:31;;;;;;;434.93;214.10;;;;;;;7.41;100.00;99361.84;5006397;28;20291;-61
2022/11/10 07:06:15;;;;;;;438.03;239.33;;;;;;;8.59;100.00;99386.09;5004540;28;20523;-61
2022/11/10 07:08:59;;;;;;;436.63;233.47;;;;;;;9.28;100.00;99375.81;5005057;28;20853;-60
2022/11/10 07:11:44;;;;;;;443.70;255.75;;;;;;;9.75;100.00;99386.78;5004502;28;20295;-60
2022/11/10 07:14:29;;;;;;;444.47;263.83;;;;;;;9.98;100.00;99390.09;5005490;28;20064;-60
2022/11/10 07:17:13;;;;;;;451.70;286.27;;;;;;;10.25;100.00;99383.16;5002561;28;20287;-60
2022/11/10 07:19:57;;;;;;;448.63;284.03;;;;;;;10.39;100.00;99396.75;5006703;28;20893;-60
2022/11/10 07:22:42;;;;;;;454.60;301.17;;;;;;;10.42;100.00;99379.66;5003311;28;20624;-62
2022/11/10 07:25:32;;;;;;;454.27;306.60;;;;;;;10.61;100.00;99403.44;5009470;28;20308;-61
2022/11/10 07:28:17;;;;;;;458.53;315.93;;;;;;;10.68;100.00;99400.00;5004140;28;20343;-61
2022/11/10 07:31:02;;;;;;;463.97;333.67;;;;;;;10.73;100.00;99411.06;5005152;28;21045;-61
2022/11/10 07:33:46;;;;;;;461.88;329.58;;;;;;;10.72;100.00;99401.66;5003466;28;20356;-62
2022/11/10 07:36:30;;;;;;;458.17;322.03;;;;;;;10.84;100.00;99401.56;5007786;28;20052;-62
2022/11/10 07:39:15;;;;;;;457.17;321.92;;;;;;;10.92;100.00;99404.94;5009105;28;20311;-61
2022/11/10 07:41:59;;;;;;;460.30;329.03;;;;;;;10.86;100.00;99399.81;5007815;28;20123;-62
2022/11/10 07:44:43;;;;;;;462.50;338.40;;;;;;;10.90;100.00;99408.38;4998405;28;20360;-62
2022/11/10 07:47:27;;;;;;;458.17;332.83;;;;;;;10.97;100.00;99416.00;5006708;28;20443;-62
2022/11/10 07:50:11;;;;;;;458.47;327.37;;;;;;;10.94;100.00;99400.66;5008578;28;20300;-62
2022/11/10 07:53:12;;;;;;;457.97;332.93;;;;;;;10.95;100.00;99401.47;5009741;28;20272;-60
2022/11/10 07:55:57;;;;;;;461.13;340.53;;;;;;;11.02;100.00;99407.41;5002827;28;20828;-61
2022/11/10 07:58:41;;;;;;;459.00;337.90;;;;;;;11.19;100.00;99423.53;5006213;28;20272;-62
2022/11/10 08:01:26;;;;;;;459.60;335.80;;;;;;;11.17;100.00;99422.66;5010442;28;20049;-61
2022/11/10 08:04:09;;;;;;;466.30;356.27;;;;;;;11.19;100.00;99424.38;5007448;28;21018;-61
2022/11/10 08:06:54;;;;;;;463.13;347.37;;;;;;;11.36;100.00;99432.78;5002414;28;20272;-61
2022/11/10 08:09:38;;;;;;;462.37;349.90;;;;;;;11.39;100.00;99429.31;5006145;28;20431;-61
2022/11/10 08:12:22;;;;;;;462.40;350.00;;;;;;;11.49;100.00;99437.78;5009378;28;20277;-63
2022/11/10 08:15:06;;;;;;;464.60;348.03;;;;;;;11.58;100.00;99443.69;5008323;28;20762;-61
2022/11/10 08:17:51;;;;;;;465.13;353.00;;;;;;;11.54;100.00;99429.19;5008839;28;20276;-61
2022/11/10 08:20:35;;;;;;;462.30;350.13;;;;;;;11.69;100.00;99447.00;5010494;28;20483;-61
2022/11/10 08:23:19;;;;;;;468.20;365.30;;;;;;;11.76;100.00;99445.22;5002730;28;20326;-61
2022/11/10 08:26:04;;;;;;;465.77;360.17;;;;;;;11.77;100.00;99449.50;5003222;28;20275;-61
2022/11/10 08:28:49;;;;;;;465.73;369.05;;;;;;;11.83;100.00;99450.31;5008670;28;20065;-61
2022/11/10 08:31:34;;;;;;;467.10;364.53;;;;;;;11.88;100.00;99457.97;5009244;28;20048;-61
2022/11/10 08:34:18;;;;;;;467.70;372.10;;;;;;;11.94;100.00;99465.59;5008169;28;20140;-61
2022/11/10 08:37:03;;;;;;;471.73;380.37;;;;;;;11.94;100.00;99457.03;5007391;28;20457;-61
2022/11/10 08:39:47;;;;;;;474.67;391.13;;;;;;;12.09;100.00;99474.88;5001268;28;20280;-62
2022/11/10 08:42:31;;;;;;;471.97;381.80;;;;;;;12.08;100.00;99480.88;5005832;28;20195;-61
2022/11/10 08:45:15;;;;;;;473.27;394.97;;;;;;;12.11;100.00;99466.25;5015904;28;20057;-61
2022/11/10 08:48:03;;;;;;;475.83;389.97;;;;;;;12.11;100.00;99481.69;5002250;28;20519;-61
2022/11/10 08:50:48;;;;;;;468.07;378.13;;;;;;;12.04;100.00;99474.91;5007331;28;20659;-61
2022/11/10 08:53:32;;;;;;;470.05;380.60;;;;;;;12.14;100.00;99473.06;5007260;28;20049;-61
2022/11/10 08:56:16;;;;;;;471.33;385.27;;;;;;;12.20;100.00;99499.56;5008390;28;20092;-61
2022/11/10 08:59:01;;;;;;;469.73;383.37;;;;;;;12.12;100.00;99500.53;5020964;28;20104;-61
2022/11/10 09:01:45;;;;;;;474.10;393.27;;;;;;;12.15;100.00;99506.47;5004809;28;20488;-61
2022/11/10 09:04:29;;;;;;;472.50;388.87;;;;;;;12.13;100.00;99509.94;5006827;28;20053;-61
2022/11/10 09:07:13;;;;;;;470.60;384.67;;;;;;;12.06;100.00;99501.44;5010344;28;20088;-62
2022/11/10 09:09:58;;;;;;;469.40;384.00;;;;;;;12.11;100.00;99525.38;5004812;28;20049;-62
2022/11/10 09:12:42;;;;;;;471.77;388.10;;;;;;;12.13;100.00;99523.66;5005330;28;20060;-61
2022/11/10 09:15:27;;;;;;;476.23;396.00;;;;;;;12.13;100.00;99535.66;5003229;28;20060;-60
2022/11/10 09:18:12;;;;;;;473.70;390.15;;;;;;;12.18;100.00;99528.72;5005896;28;20052;-61
2022/11/10 09:20:57;;;;;;;468.60;382.17;;;;;;;12.25;100.00;99550.94;5023984;28;20148;-61
2022/11/10 09:23:41;;;;;;;470.10;383.97;;;;;;;12.12;100.00;99536.50;5013224;28;20060;-65
2022/11/10 09:26:25;;;;;;;471.97;389.93;;;;;;;12.06;100.00;99542.56;5019980;28;20124;-61
2022/11/10 09:29:11;;;;;;;470.48;389.50;;;;;;;12.18;100.00;99573.28;5007494;28;20462;-61
2022/11/10 09:31:55;;;;;;;469.47;384.07;;;;;;;12.10;100.00;99548.50;5012445;28;20096;-60
2022/11/10 09:34:41;;;;;;;470.40;383.47;;;;;;;12.16;100.00;99569.88;5012529;28;20045;-61
2022/11/10 09:37:27;;;;;;;475.07;393.50;;;;;;;12.03;100.00;99558.03;5009752;28;20277;-61
2022/11/10 09:40:44;;;;;;;472.00;388.50;;;;;;;12.22;100.00;99582.66;5010795;28;20061;-61
2022/11/10 09:43:32;;;;;;;471.47;386.60;;;;;;;12.24;100.00;99587.78;5012615;28;20052;-61
2022/11/10 09:46:23;;;;;;;469.40;382.33;;;;;;;12.19;100.00;99572.41;5013810;28;20130;-61
2022/11/10 09:49:31;;;;;;;474.47;395.03;;;;;;;12.24;100.00;99590.38;5011358;28;20064;-61
2022/11/10 09:52:18;;;;;;;476.40;402.63;;;;;;;12.24;100.00;99580.09;5008468;28;20457;-61
2022/11/10 09:55:24;;;;;;;473.47;393.50;;;;;;;12.42;100.00;99604.75;5004773;28;20052;-61
2022/11/10 09:58:13;;;;;;;475.97;396.93;;;;;;;12.42;100.00;99600.47;5007550;28;20100;-61
2022/11/10 10:01:12;;;;;;;474.63;397.83;;;;;;;12.33;100.00;99604.00;5006422;28;20112;-60
2022/11/10 10:04:12;;;;;;;472.13;399.97;;;;;;;12.32;100.00;99611.72;5011518;28;20080;-61
2022/11/10 10:07:24;;;;;;;473.07;393.70;;;;;;;12.41;100.00;99619.34;5010645;28;20045;-63
2022/11/10 10:10:17;;;;;;;471.10;389.47;;;;;;;12.42;100.00;99604.75;5011136;28;20119;-64
2022/11/10 10:13:22;;;;;;;472.20;395.57;;;;;;;12.29;100.00;99599.75;5013147;28;20183;-64
2022/11/10 10:16:36;;;;;;;474.87;404.07;;;;;;;12.42;100.00;99615.91;5012306;28;20429;-64
2022/11/10 10:20:00;;;;;;;474.43;398.47;;;;;;;12.41;100.00;99613.34;5012238;28;20057;-64
2022/11/10 10:23:13;;;;;;;472.93;397.27;;;;;;;12.36;100.00;99600.53;5011761;28;20088;-64
2022/11/10 10:25:57;;;;;;;472.93;395.27;;;;;;;12.51;100.00;99610.66;5008623;28;20178;-64
2022/11/10 10:28:47;;;;;;;470.50;394.10;;;;;;;12.31;100.00;99605.72;5010933;28;20060;-64
2022/11/10 10:31:45;;;;;;;472.93;397.80;;;;;;;12.41;100.00;99606.47;5010716;28;20089;-65
2022/11/10 10:34:30;;;;;;;477.37;410.57;;;;;;;12.45;100.00;99630.44;5012092;28;20071;-65
2022/11/10 10:37:20;;;;;;;;;;;;;;;12.51;100.00;99632.94;5010453;28;20061;-63
2022/11/10 10:40:13;;;;;;;471.90;400.10;;;;;;;12.44;100.00;99636.44;5008074;28;19975;-63
2022/11/10 10:42:58;;;;;;;471.97;396.47;;;;;;;12.44;100.00;99634.72;5010337;28;20080;-64
2022/11/10 10:45:42;;;;;;;477.77;412.93;;;;;;;12.47;100.00;99639.00;5009668;28;20144;-63
2022/11/10 10:48:29;;;;;;;475.10;406.08;;;;;;;12.36;100.00;99627.09;5011120;28;20371;-64
2022/11/10 10:51:28;;;;;;;475.67;409.50;;;;;;;12.49;100.00;99638.09;5008045;28;20298;-64
2022/11/10 10:54:27;;;;;;;475.13;406.40;;;;;;;12.49;100.00;99640.69;5010393;28;20478;-62
2022/11/10 10:57:28;;;;;;;478.23;418.47;;;;;;;12.47;100.00;99646.72;5011156;28;20060;-64
2022/11/10 11:00:22;;;;;;;473.00;401.67;;;;;;;12.54;100.00;99646.63;5010593;28;20381;-63
2022/11/10 11:03:25;;;;;;;476.40;407.20;;;;;;;12.50;100.00;99651.81;5005331;28;20401;-64
2022/11/10 11:06:15;;;;;;;473.67;397.33;;;;;;;12.43;100.00;99663.03;5010028;28;20107;-64
2022/11/10 11:09:21;;;;;;;474.73;408.83;;;;;;;12.46;100.00;99658.72;5008685;28;20750;-63
2022/11/10 11:12:24;;;;;;;472.47;400.00;;;;;;;12.41;100.00;99660.47;5008918;28;20323;-63
2022/11/10 11:15:19;;;;;;;473.17;394.47;;;;;;;12.44;100.00;99657.88;5010075;28;20137;-63
2022/11/10 11:18:16;;;;;;;473.00;396.42;;;;;;;12.40;100.00;99656.19;5010485;28;20096;-63
2022/11/10 11:21:01;;;;;;;473.30;398.63;;;;;;;12.36;100.00;99667.38;5008439;28;20060;-63
2022/11/10 11:24:10;;;;;;;475.83;399.73;;;;;;;12.48;100.00;99674.13;5010322;28;20074;-64
2022/11/10 11:27:02;;;;;;;471.23;391.23;;;;;;;12.40;100.00;99660.47;5010455;28;20091;-63
2022/11/10 11:30:11;;;;;;;476.53;408.43;;;;;;;12.42;100.00;99671.63;5010487;28;20069;-63
2022/11/10 11:33:01;;;;;;;471.30;393.73;;;;;;;12.42;100.00;99672.47;5009919;28;20057;-63
2022/11/10 11:36:14;;;;;;;476.53;405.43;;;;;;;12.42;100.00;99672.47;5007971;28;20052;-58
2022/11/10 11:39:15;;;;;;;475.07;401.13;;;;;;;12.24;100.00;99657.22;5007785;28;20352;-64
2022/11/10 11:42:22;;;;;;;472.60;394.43;;;;;;;12.31;100.00;99676.84;5011315;28;20053;-68
2022/11/10 11:45:16;;;;;;;506.43;453.03;;;;;;;12.34;100.00;99675.13;5008986;28;20100;-64
2022/11/10 11:48:18;;;;;;;474.37;408.13;;;;;;;12.20;100.00;99668.38;5008308;28;20375;-64
2022/11/10 11:51:35;;;;;;;454.67;327.03;;;;;;;12.37;100.00;99684.53;5008166;28;21148;-64
2022/11/10 11:54:25;;;;;;;;;;;;;;;12.31;100.00;99688.00;4987129;28;20347;-63
2022/11/10 11:58:00;;;;;;;445.27;281.97;;;;;;;12.25;100.00;99680.34;5008726;28;20284;-64
2022/11/10 12:00:58;;;;;;;440.53;269.10;;;;;;;12.23;100.00;99681.22;4944639;28;20360;-64
2022/11/10 12:04:02;;;;;;;448.13;292.97;;;;;;;12.22;100.00;99682.09;4944487;28;20345;-64
2022/11/10 12:07:18;;;;;;;461.97;359.13;;;;;;;12.26;100.00;99688.91;4941446;28;20333;-60
2022/11/10 12:10:24;;;;;;;465.03;363.70;;;;;;;12.22;100.00;99671.81;4937717;28;20306;-60
2022/11/10 12:13:21;;;;;;;459.38;351.58;;;;;;;12.32;100.00;99692.28;4944012;28;20306;-61
2022/11/10 12:16:23;;;;;;;466.80;355.93;;;;;;;12.22;100.00;99680.34;4943023;28;20066;-60
2022/11/10 12:19:26;;;;;;;465.93;384.90;;;;;;;12.37;100.00;99692.25;4929037;28;20450;-61
2022/11/10 12:22:22;;;;;;;470.87;395.80;;;;;;;12.33;100.00;99685.41;4938579;28;21033;-60
2022/11/10 12:25:27;;;;;;;471.85;411.20;;;;;;;12.23;100.00;99665.78;4940274;28;20273;-61
2022/11/10 12:28:24;;;;;;;473.30;417.97;;;;;;;12.23;100.00;99668.34;4943645;28;20046;-60
2022/11/10 12:31:19;;;;;;;471.17;417.37;;;;;;;12.28;100.00;99675.16;4943975;28;20490;-60
2022/11/10 12:34:11;;;;;;;473.97;420.70;;;;;;;12.26;100.00;99676.06;4945019;28;20338;-60
2022/11/10 12:37:00;;;;;;;475.10;419.20;;;;;;;12.43;100.00;99688.75;4975949;28;20629;-61
2022/11/10 12:39:53;;;;;;;465.90;395.60;;;;;;;12.50;100.00;99698.13;5009261;28;20276;-61
2022/11/10 12:42:37;;;;;;;473.43;403.77;;;;;;;12.45;100.00;99699.88;5001016;28;21855;-59
2022/11/10 12:45:35;;;;;;;466.57;400.93;;;;;;;12.41;100.00;99683.63;4991770;28;20287;-61